createdAt,value
2019-02-19T00:01:02.201Z,3.20
2019-02-19T00:06:07.321Z,3.10
2019-02-19T00:11:12.473Z,3.17
2019-02-19T00:16:17.671Z,2.93
2019-02-19T00:21:22.812Z,3.90
2019-02-19T00:26:28.015Z,3.07
2019-02-19T00:31:33.269Z,3.13
2019-02-19T00:36:38.421Z,3.30
2019-02-19T00:41:43.507Z,3.23
2019-02-19T00:46:48.673Z,2.90
2019-02-19T00:51:53.875Z,3.20
2019-02-19T00:56:59.020Z,2.87
2019-02-19T01:02:04.113Z,3.47
2019-02-19T01:07:09.395Z,3.43
2019-02-19T01:12:14.788Z,4.73
2019-02-19T01:17:19.949Z,3.73
2019-02-19T01:22:25.058Z,3.40
2019-02-19T01:27:30.190Z,3.47
2019-02-19T01:32:35.342Z,3.20
2019-02-19T01:37:40.539Z,2.77
2019-02-19T01:42:45.704Z,2.93
2019-02-19T01:47:50.789Z,3.50
2019-02-19T01:52:55.920Z,3.10
2019-02-19T01:58:01.141Z,4.10
2019-02-19T02:03:06.301Z,3.73
2019-02-19T02:08:11.520Z,3.87
2019-02-19T02:13:16.589Z,3.70
2019-02-19T02:18:21.689Z,3.17
2019-02-19T02:23:26.812Z,3.77
2019-02-19T02:28:31.911Z,3.03
2019-02-19T02:33:37.092Z,3.07
2019-02-19T02:38:42.250Z,4.53
2019-02-19T02:43:47.442Z,3.30
2019-02-19T02:48:52.605Z,4.93
2019-02-19T02:53:57.887Z,3.10
2019-02-19T02:59:03.040Z,3.70
2019-02-19T03:04:08.341Z,3.90
2019-02-19T03:09:13.499Z,3.07
2019-02-19T03:14:18.666Z,2.10
2019-02-19T03:19:23.838Z,3.10
2019-02-19T03:24:29.015Z,2.90
2019-02-19T03:29:34.205Z,3.27
2019-02-19T03:34:39.306Z,3.60
2019-02-19T03:39:44.386Z,3.33
2019-02-19T03:44:49.533Z,3.57
2019-02-19T03:49:55.542Z,3.03
2019-02-19T03:55:00.715Z,2.90
2019-02-19T04:00:06.093Z,3.93
2019-02-19T04:05:11.380Z,5.37
2019-02-19T04:10:16.590Z,3.13
2019-02-19T04:15:21.730Z,3.40
2019-02-19T04:20:26.787Z,3.90
2019-02-19T04:25:31.970Z,3.50
2019-02-19T04:30:37.060Z,2.73
2019-02-19T04:35:42.212Z,3.00
2019-02-19T04:40:47.389Z,3.47
2019-02-19T04:45:52.529Z,3.30
2019-02-19T04:50:57.662Z,3.43
2019-02-19T04:56:02.809Z,4.37
2019-02-19T05:01:07.980Z,3.53
2019-02-19T05:06:13.206Z,4.00
2019-02-19T05:11:18.413Z,3.80
2019-02-19T05:16:23.545Z,3.73
2019-02-19T05:21:28.759Z,3.13
2019-02-19T05:26:33.972Z,3.00
2019-02-19T05:31:39.127Z,3.83
2019-02-19T05:36:44.328Z,2.93
2019-02-19T05:41:49.452Z,3.67
2019-02-19T05:46:54.566Z,2.87
2019-02-19T05:51:59.712Z,2.77
2019-02-19T05:57:04.902Z,3.43
2019-02-19T06:02:10.090Z,2.60
2019-02-19T06:07:15.257Z,3.27
2019-02-19T06:12:20.383Z,3.90
2019-02-19T06:17:25.572Z,3.30
2019-02-19T06:22:30.805Z,2.57
2019-02-19T06:27:36.008Z,3.20
2019-02-19T06:32:41.262Z,4.43
2019-02-19T06:37:46.435Z,2.70
2019-02-19T06:42:51.601Z,2.97
2019-02-19T06:47:56.762Z,3.00
2019-02-19T06:53:01.854Z,3.10
2019-02-19T06:58:07.043Z,3.00
2019-02-19T07:03:34.248Z,3.33
2019-02-19T07:08:39.449Z,3.10
2019-02-19T07:13:44.711Z,3.23
2019-02-19T07:18:49.875Z,2.77
2019-02-19T07:24:04.255Z,2.80
2019-02-19T07:29:04.380Z,3.60
2019-02-19T07:34:09.458Z,2.77
2019-02-19T07:39:14.610Z,4.07
2019-02-19T07:44:19.891Z,4.62
2019-02-19T07:49:25.063Z,4.10
2019-02-19T07:54:30.340Z,2.80
2019-02-19T07:59:35.481Z,2.47
2019-02-19T08:04:40.674Z,3.87
2019-02-19T08:09:45.808Z,3.37
2019-02-19T08:14:51.037Z,2.80
2019-02-19T08:19:56.220Z,3.43
2019-02-19T08:25:01.529Z,3.23
2019-02-19T08:30:07.260Z,3.33
2019-02-19T08:35:12.506Z,3.20
2019-02-19T08:40:17.696Z,2.73
2019-02-19T08:45:22.828Z,5.37
2019-02-19T08:50:27.992Z,3.83
2019-02-19T08:55:34.837Z,3.50
2019-02-19T09:00:40.083Z,4.47
2019-02-19T09:05:45.317Z,5.23
2019-02-19T09:10:50.488Z,5.27
2019-02-19T09:15:55.661Z,4.13
2019-02-19T09:21:00.875Z,4.47
2019-02-19T09:26:06.033Z,3.87
2019-02-19T09:31:11.188Z,5.60
2019-02-19T09:36:16.367Z,5.53
2019-02-19T09:41:21.535Z,4.13
2019-02-19T09:46:26.806Z,4.27
2019-02-19T09:51:32.016Z,3.30
2019-02-19T09:56:37.183Z,4.70
2019-02-19T10:01:42.387Z,4.80
2019-02-19T10:06:47.575Z,4.50
2019-02-19T10:11:52.720Z,4.90
2019-02-19T10:16:57.907Z,5.07
2019-02-19T10:22:03.097Z,6.20
2019-02-19T10:27:08.642Z,5.07
2019-02-19T10:32:13.840Z,3.77
2019-02-19T10:37:19.027Z,4.40
2019-02-19T10:42:24.242Z,3.87
2019-02-19T10:47:29.408Z,4.67
2019-02-19T10:52:34.606Z,3.97
2019-02-19T10:57:39.758Z,5.00
2019-02-19T11:02:44.909Z,2.97
2019-02-19T11:07:50.119Z,3.43
2019-02-19T11:12:55.407Z,3.17
2019-02-19T11:18:03.756Z,3.63
2019-02-19T11:23:08.690Z,3.17
2019-02-19T11:28:13.857Z,3.50
2019-02-19T11:33:19.077Z,3.17
2019-02-19T11:38:24.290Z,2.83
2019-02-19T11:43:29.492Z,2.60
2019-02-19T11:48:36.904Z,3.27
2019-02-19T11:53:41.547Z,3.27
2019-02-19T11:58:46.750Z,4.17
2019-02-19T12:03:51.951Z,3.63
2019-02-19T12:08:57.135Z,3.03
2019-02-19T12:14:02.343Z,2.93
2019-02-19T12:19:07.576Z,2.73
2019-02-19T12:24:12.756Z,2.60
2019-02-19T12:29:18.087Z,2.97
2019-02-19T12:34:23.382Z,2.70
2019-02-19T12:39:28.533Z,2.53
2019-02-19T12:44:33.723Z,2.70
2019-02-19T12:49:38.913Z,3.07
2019-02-19T12:54:44.039Z,2.83
2019-02-19T12:59:56.418Z,1.77
2019-02-19T13:04:56.091Z,3.23
2019-02-19T13:10:01.259Z,2.50
2019-02-19T13:15:07.916Z,2.20
2019-02-19T13:20:13.789Z,2.53
2019-02-19T13:25:18.981Z,2.93
2019-02-19T13:30:24.096Z,2.17
2019-02-19T13:35:29.303Z,2.23
2019-02-19T13:40:34.482Z,2.47
2019-02-19T13:45:39.583Z,2.10
2019-02-19T13:50:44.733Z,1.43
2019-02-19T13:55:52.495Z,1.80
2019-02-19T14:00:57.664Z,2.53
2019-02-19T14:06:02.857Z,2.20
2019-02-19T14:11:08.024Z,2.20
2019-02-19T14:16:17.637Z,2.33
2019-02-19T14:21:59.641Z,2.10
2019-02-19T14:27:35.607Z,2.27
2019-02-19T14:33:08.536Z,1.80
2019-02-19T14:38:32.612Z,2.63
2019-02-19T14:43:55.110Z,1.77
2019-02-19T14:49:36.596Z,1.97
2019-02-19T14:54:40.336Z,2.40
2019-02-19T15:00:04.408Z,1.90
2019-02-19T15:05:30.173Z,2.10
2019-02-19T15:10:54.188Z,2.20
2019-02-19T15:16:24.254Z,2.50
2019-02-19T15:21:46.652Z,2.57
2019-02-19T15:27:19.567Z,2.20
2019-02-19T15:32:42.211Z,2.00
2019-02-19T15:38:04.969Z,3.87
2019-02-19T15:43:27.421Z,2.73
2019-02-19T15:48:51.232Z,2.10
2019-02-19T15:54:27.285Z,2.40
2019-02-19T16:00:00.294Z,2.67
2019-02-19T16:05:34.445Z,2.70
2019-02-19T16:10:57.051Z,3.37
2019-02-19T16:16:28.881Z,3.17
2019-02-19T16:21:54.690Z,3.17
2019-02-19T16:27:12.845Z,2.60
2019-02-19T16:32:26.485Z,2.83
2019-02-19T16:37:57.392Z,2.03
2019-02-19T16:43:10.132Z,2.30
2019-02-19T16:48:25.176Z,2.80
2019-02-19T16:53:52.341Z,2.23
2019-02-19T16:59:26.973Z,2.20
2019-02-19T17:04:54.097Z,2.47
2019-02-19T17:10:24.166Z,2.47
2019-02-19T17:15:49.713Z,2.80
2019-02-19T17:21:13.774Z,2.93
2019-02-19T17:26:37.851Z,2.50
2019-02-19T17:31:54.607Z,2.80
2019-02-19T17:37:20.963Z,2.17
2019-02-19T17:42:51.689Z,2.50
2019-02-19T17:48:15.843Z,2.60
2019-02-19T17:53:42.649Z,2.57
2019-02-19T17:59:15.847Z,2.83
2019-02-19T18:04:40.524Z,3.27
2019-02-19T18:09:54.055Z,4.20
2019-02-19T18:15:18.186Z,3.47
2019-02-19T18:20:23.409Z,3.03
2019-02-19T18:25:28.592Z,3.50
2019-02-19T18:30:33.835Z,4.40
2019-02-19T18:35:39.031Z,4.22
2019-02-19T18:40:44.251Z,4.97
2019-02-19T18:45:49.484Z,3.23
2019-02-19T18:50:58.486Z,4.63
2019-02-19T18:56:01.858Z,4.10
2019-02-19T19:01:08.540Z,5.17
2019-02-19T19:06:13.885Z,3.80
2019-02-19T19:11:19.379Z,5.47
2019-02-19T19:16:24.616Z,4.23
2019-02-19T19:21:29.791Z,3.87
2019-02-19T19:26:34.987Z,3.73
2019-02-19T19:31:40.194Z,4.20
2019-02-19T19:36:45.436Z,5.17
2019-02-19T19:41:50.700Z,4.78
2019-02-19T19:46:55.867Z,4.83
2019-02-19T19:52:01.099Z,3.90
2019-02-19T19:57:06.288Z,5.25
2019-02-19T20:02:11.527Z,5.08
2019-02-19T20:07:16.685Z,5.12
2019-02-19T20:12:21.963Z,3.30
2019-02-19T20:17:27.218Z,3.67
2019-02-19T20:22:32.502Z,4.93
2019-02-19T20:27:37.724Z,4.93
2019-02-19T20:32:42.944Z,4.60
2019-02-19T20:37:53.980Z,4.97
2019-02-19T20:42:55.327Z,4.47
2019-02-19T20:48:00.696Z,4.23
2019-02-19T20:53:06.008Z,5.97
2019-02-19T20:58:11.252Z,3.80
2019-02-19T21:03:16.520Z,3.50
2019-02-19T21:08:21.790Z,3.30
2019-02-19T21:13:27.049Z,3.57
2019-02-19T21:18:32.298Z,5.33
2019-02-19T21:23:37.718Z,4.30
2019-02-19T21:28:42.940Z,4.67
2019-02-19T21:33:48.134Z,4.43
2019-02-19T21:38:53.396Z,4.10
2019-02-19T21:43:58.572Z,4.73
2019-02-19T21:49:03.967Z,4.33
2019-02-19T21:54:09.369Z,4.47
2019-02-19T21:59:14.565Z,4.23
2019-02-19T22:04:20.035Z,3.90
2019-02-19T22:09:25.337Z,5.42
2019-02-19T22:14:30.563Z,4.30
2019-02-19T22:19:35.768Z,3.73
2019-02-19T22:24:40.924Z,3.73
2019-02-19T22:29:46.135Z,4.60
2019-02-19T22:34:51.330Z,4.70
2019-02-19T22:39:56.560Z,3.67
2019-02-19T22:45:02.018Z,4.40
2019-02-19T22:50:07.534Z,4.23
2019-02-19T22:55:31.799Z,3.97
2019-02-19T23:01:03.668Z,4.20
2019-02-19T23:06:09.215Z,4.00
2019-02-19T23:11:14.382Z,3.90
2019-02-19T23:16:20.675Z,5.03
2019-02-19T23:21:25.864Z,4.03
2019-02-19T23:26:31.039Z,3.20
2019-02-19T23:31:36.241Z,4.23
2019-02-19T23:37:00.286Z,4.80
2019-02-19T23:42:05.593Z,3.73
2019-02-19T23:47:11.467Z,4.13
2019-02-19T23:52:16.691Z,3.97
2019-02-19T23:57:23.731Z,4.70
